Time;durP1;ratioP1;P1;durP2;ratioP2;P2;SDS_P1;SDS_P2;PMS_P1;PMS_P2;Temp;Humidity;BMP_temperature;BMP_pressure;BME280_temperature;BME280_humidity;BME280_pressure;Samples;Min_cycle;Max_cycle;Signal;HPM_P1;HPM_P2
2020/12/08 00:01:52;;;;;;;20.45;13.90;;;2.20;99.90;;;;;;466916;253;27532;-75
2020/12/08 00:03:54;;;;;;;24.95;13.93;;;2.20;99.90;;;;;;467423;253;27536;-75
2020/12/08 00:05:55;;;;;;;21.73;11.85;;;2.20;99.90;;;;;;467371;253;27548;-76
2020/12/08 00:07:56;;;;;;;23.20;14.50;;;2.30;99.90;;;;;;467387;253;28031;-75
2020/12/08 00:09:57;;;;;;;21.90;14.55;;;2.20;99.90;;;;;;467384;254;28173;-75
2020/12/08 00:11:59;;;;;;;21.62;13.05;;;2.30;99.90;;;;;;467294;253;27560;-76
2020/12/08 00:14:00;;;;;;;16.05;11.80;;;2.30;99.90;;;;;;467419;253;27541;-75
2020/12/08 00:16:01;;;;;;;24.50;14.00;;;2.40;99.90;;;;;;467395;253;27615;-75
2020/12/08 00:18:02;;;;;;;20.60;12.65;;;2.20;99.90;;;;;;467393;253;27649;-77
2020/12/08 00:20:04;;;;;;;22.50;12.52;;;2.20;99.90;;;;;;467340;253;27527;-75
2020/12/08 00:22:05;;;;;;;20.77;13.05;;;2.20;99.90;;;;;;467369;253;27539;-75
2020/12/08 00:24:06;;;;;;;21.73;13.18;;;2.10;99.90;;;;;;467506;254;28136;-75
2020/12/08 00:26:07;;;;;;;19.92;13.70;;;2.20;99.90;;;;;;467514;253;28078;-75
2020/12/08 00:28:09;;;;;;;19.62;13.20;;;2.30;99.90;;;;;;467494;254;27542;-75
2020/12/08 00:30:10;;;;;;;20.48;12.95;;;2.20;99.90;;;;;;467407;253;27507;-75
2020/12/08 00:32:11;;;;;;;25.65;14.87;;;2.20;99.90;;;;;;467281;253;27573;-75
2020/12/08 00:34:13;;;;;;;23.08;14.52;;;2.20;99.90;;;;;;467375;253;28006;-76
2020/12/08 00:36:14;;;;;;;21.05;13.10;;;2.20;99.90;;;;;;467365;253;28007;-76
2020/12/08 00:38:15;;;;;;;23.42;13.90;;;2.30;99.90;;;;;;467365;253;27664;-75
2020/12/08 00:40:16;;;;;;;19.85;12.90;;;2.50;99.90;;;;;;467278;254;28038;-75
2020/12/08 00:42:18;;;;;;;20.85;13.98;;;2.60;99.90;;;;;;467379;254;28032;-74
2020/12/08 00:44:19;;;;;;;21.67;13.38;;;2.50;99.90;;;;;;467382;253;27654;-75
2020/12/08 00:46:20;;;;;;;19.83;13.13;;;2.40;99.90;;;;;;467279;253;27646;-75
2020/12/08 00:48:21;;;;;;;20.88;13.60;;;2.20;99.90;;;;;;467280;253;27532;-75
2020/12/08 00:50:23;;;;;;;24.02;14.77;;;2.30;99.90;;;;;;467351;253;27528;-75
2020/12/08 00:52:24;;;;;;;22.83;14.45;;;2.40;99.90;;;;;;467418;253;27613;-75
2020/12/08 00:54:25;;;;;;;20.45;12.95;;;2.30;99.90;;;;;;467453;253;28127;-75
2020/12/08 00:56:26;;;;;;;20.12;12.80;;;2.30;99.90;;;;;;467400;253;28804;-75
2020/12/08 00:58:28;;;;;;;18.23;12.52;;;2.30;99.90;;;;;;467418;254;27613;-75
2020/12/08 01:00:29;;;;;;;17.12;12.45;;;2.20;99.90;;;;;;467303;253;27586;-75
2020/12/08 01:02:30;;;;;;;19.77;14.00;;;2.30;99.90;;;;;;467459;253;27498;-75
2020/12/08 01:04:31;;;;;;;18.30;12.57;;;2.30;99.90;;;;;;467441;253;27527;-75
2020/12/08 01:06:33;;;;;;;19.25;11.90;;;2.30;99.90;;;;;;467489;254;27520;-75
2020/12/08 01:08:34;;;;;;;20.10;13.00;;;2.40;99.90;;;;;;467482;253;27529;-75
2020/12/08 01:10:35;;;;;;;19.05;11.70;;;2.50;99.90;;;;;;467337;253;28163;-75
2020/12/08 01:12:36;;;;;;;16.90;11.32;;;2.50;99.90;;;;;;467383;254;28054;-75
2020/12/08 01:14:38;;;;;;;17.60;11.27;;;2.50;99.90;;;;;;467386;253;27573;-75
2020/12/08 01:16:39;;;;;;;18.12;11.90;;;2.50;99.90;;;;;;467406;253;27623;-75
2020/12/08 01:18:40;;;;;;;20.17;12.88;;;2.40;99.90;;;;;;467289;253;27648;-75
2020/12/08 01:20:41;;;;;;;18.37;11.05;;;2.30;99.90;;;;;;467202;253;27544;-75
2020/12/08 01:22:43;;;;;;;17.12;11.95;;;2.10;99.90;;;;;;467395;253;27505;-75
2020/12/08 01:24:44;;;;;;;18.87;12.02;;;2.10;99.90;;;;;;467371;251;27614;-75
2020/12/08 01:26:45;;;;;;;18.98;11.77;;;2.20;99.90;;;;;;467351;253;28048;-75
2020/12/08 01:28:46;;;;;;;21.15;11.57;;;2.20;99.90;;;;;;467340;253;28175;-75
2020/12/08 01:30:48;;;;;;;17.62;11.32;;;2.10;99.90;;;;;;467324;253;27548;-75
2020/12/08 01:32:49;;;;;;;18.48;11.25;;;2.00;99.90;;;;;;467377;253;27569;-75
2020/12/08 01:34:50;;;;;;;20.55;12.98;;;1.90;99.90;;;;;;467190;253;27543;-75
2020/12/08 01:36:51;;;;;;;17.60;12.02;;;1.80;99.90;;;;;;467400;253;27568;-75
2020/12/08 01:38:53;;;;;;;18.92;12.02;;;1.80;99.90;;;;;;467393;254;27658;-75
2020/12/08 01:40:54;;;;;;;16.42;11.32;;;1.90;99.90;;;;;;467352;253;29040;-75
2020/12/08 01:42:55;;;;;;;18.77;12.30;;;1.90;99.90;;;;;;467348;253;28085;-75
2020/12/08 01:44:56;;;;;;;19.87;11.75;;;2.00;99.90;;;;;;467372;253;28034;-75
2020/12/08 01:46:58;;;;;;;19.12;12.23;;;2.10;99.90;;;;;;467378;254;27533;-75
2020/12/08 01:48:59;;;;;;;16.95;11.75;;;2.20;99.90;;;;;;467240;253;27631;-75
2020/12/08 01:51:00;;;;;;;16.85;11.98;;;2.20;99.90;;;;;;467076;251;27918;-75
2020/12/08 01:53:02;;;;;;;16.42;11.43;;;2.10;99.90;;;;;;467446;253;27999;-74
2020/12/08 01:55:03;;;;;;;17.30;11.95;;;2.10;99.90;;;;;;467510;253;27539;-75
2020/12/08 01:57:04;;;;;;;19.05;11.25;;;2.00;99.90;;;;;;467535;253;28053;-75
2020/12/08 01:59:05;;;;;;;16.17;11.00;;;2.00;99.90;;;;;;467372;251;27982;-75
2020/12/08 02:01:08;;;;;;;16.90;11.23;;;2.00;99.90;;;;;;467340;254;27528;-75
2020/12/08 02:03:08;;;;;;;14.30;9.80;;;1.70;99.90;;;;;;467405;254;27686;-76
2020/12/08 02:05:09;;;;;;;17.25;11.10;;;1.70;99.90;;;;;;467235;253;27533;-75
2020/12/08 02:07:10;;;;;;;16.75;9.77;;;1.80;99.90;;;;;;467252;253;27596;-75
2020/12/08 02:09:12;;;;;;;13.60;9.68;;;1.70;99.90;;;;;;467238;251;27650;-75
2020/12/08 02:11:13;;;;;;;14.77;10.30;;;1.70;99.90;;;;;;467239;253;27622;-75
2020/12/08 02:13:14;;;;;;;14.90;10.13;;;1.80;99.90;;;;;;467096;251;28131;-76
2020/12/08 02:15:15;;;;;;;17.12;10.45;;;1.90;99.90;;;;;;466573;251;28800;-74
2020/12/08 02:17:17;;;;;;;15.20;9.82;;;2.00;99.90;;;;;;466565;253;27591;-74
2020/12/08 02:19:18;;;;;;;16.58;11.48;;;1.90;99.90;;;;;;467052;253;27621;-75
2020/12/08 02:21:19;;;;;;;17.15;11.07;;;1.80;99.90;;;;;;467384;254;27627;-75
2020/12/08 02:23:20;;;;;;;16.33;10.63;;;1.80;99.90;;;;;;467503;254;27540;-75
2020/12/08 02:25:22;;;;;;;14.65;10.63;;;1.70;99.90;;;;;;467485;254;27514;-75
2020/12/08 02:27:23;;;;;;;14.25;9.85;;;1.70;99.90;;;;;;467547;254;27548;-75
2020/12/08 02:29:24;;;;;;;16.73;10.95;;;1.80;99.90;;;;;;467540;254;27570;-75
2020/12/08 02:31:25;;;;;;;15.35;10.75;;;1.90;99.90;;;;;;467442;253;27949;-75
2020/12/08 02:33:27;;;;;;;14.77;10.52;;;1.90;99.90;;;;;;467532;253;28016;-75
2020/12/08 02:35:28;;;;;;;14.18;10.07;;;1.90;99.90;;;;;;467483;253;27616;-75
2020/12/08 02:37:29;;;;;;;15.27;10.05;;;2.00;99.90;;;;;;467421;253;27533;-75
2020/12/08 02:39:30;;;;;;;14.02;10.82;;;2.10;99.90;;;;;;467404;253;27915;-75
2020/12/08 02:41:32;;;;;;;16.77;12.05;;;2.10;99.90;;;;;;467324;254;27581;-75
2020/12/08 02:43:33;;;;;;;16.00;11.20;;;2.10;99.90;;;;;;467437;253;27545;-74
2020/12/08 02:45:51;;;;;;;18.48;11.48;;;2.10;99.90;;;;;;467372;254;28113;-76
2020/12/08 02:47:52;;;;;;;17.05;11.68;;;2.00;99.90;;;;;;466992;253;28032;-75
2020/12/08 02:54:57;;;;;;;13.90;10.55;;;2.10;99.90;;;;;;467096;254;27477;-75
2020/12/08 02:56:58;;;;;;;17.35;11.57;;;2.20;99.90;;;;;;467405;251;27553;-75
2020/12/08 02:58:59;;;;;;;16.02;11.20;;;2.20;99.90;;;;;;467444;254;29186;-75
2020/12/08 03:01:01;;;;;;;15.18;11.00;;;2.20;99.90;;;;;;467368;253;28066;-75
2020/12/08 03:03:02;;;;;;;14.95;11.02;;;2.30;99.90;;;;;;467334;254;27545;-74
2020/12/08 03:05:03;;;;;;;17.15;11.32;;;2.30;99.90;;;;;;467372;253;27628;-75
2020/12/08 03:07:04;;;;;;;15.20;10.98;;;2.10;99.90;;;;;;467370;253;27544;-75
2020/12/08 03:09:06;;;;;;;15.57;11.40;;;2.10;99.90;;;;;;467375;253;27580;-75
2020/12/08 03:11:07;;;;;;;17.12;10.85;;;2.10;99.90;;;;;;467333;253;27635;-75
2020/12/08 03:13:08;;;;;;;17.20;12.07;;;2.10;99.90;;;;;;467373;253;28106;-75
2020/12/08 03:15:10;;;;;;;17.95;12.52;;;2.10;99.90;;;;;;467367;253;28012;-75
2020/12/08 03:17:11;;;;;;;19.15;12.80;;;1.90;99.90;;;;;;467367;253;28010;-76
2020/12/08 03:19:12;;;;;;;19.45;13.05;;;1.80;99.90;;;;;;467407;253;27585;-75
2020/12/08 03:21:13;;;;;;;18.95;13.10;;;1.80;99.90;;;;;;467330;253;27537;-75
2020/12/08 03:23:15;;;;;;;23.20;14.32;;;1.90;99.90;;;;;;467390;253;28000;-77
2020/12/08 03:25:16;;;;;;;19.77;12.88;;;1.80;99.90;;;;;;467440;253;27493;-74
2020/12/08 03:27:17;;;;;;;23.25;13.43;;;1.80;99.90;;;;;;467421;253;27528;-75
2020/12/08 03:29:18;;;;;;;21.50;14.40;;;1.90;99.90;;;;;;467238;252;28742;-75
2020/12/08 03:31:20;;;;;;;18.92;13.50;;;2.00;99.90;;;;;;467284;253;28015;-75
2020/12/08 03:33:21;;;;;;;22.30;14.85;;;2.10;99.90;;;;;;467230;253;27563;-76
2020/12/08 03:35:22;;;;;;;20.80;13.55;;;2.10;99.90;;;;;;467347;253;27509;-75
2020/12/08 03:37:23;;;;;;;22.42;14.25;;;2.20;99.90;;;;;;467474;251;27547;-75
2020/12/08 03:39:25;;;;;;;21.15;13.80;;;2.30;99.90;;;;;;467378;254;27589;-75
2020/12/08 03:41:26;;;;;;;22.02;13.80;;;2.30;99.90;;;;;;467332;253;27542;-75
2020/12/08 03:43:27;;;;;;;18.73;12.77;;;2.30;99.90;;;;;;467377;253;27545;-75
2020/12/08 03:45:28;;;;;;;17.25;12.48;;;2.30;99.90;;;;;;467359;253;28084;-75
2020/12/08 03:47:31;;;;;;;22.37;14.18;;;2.30;99.90;;;;;;467260;254;28122;-75
2020/12/08 03:49:31;;;;;;;20.10;13.52;;;2.30;99.90;;;;;;467405;253;27568;-74
2020/12/08 03:51:32;;;;;;;25.70;14.32;;;2.30;99.90;;;;;;467339;253;27654;-75
2020/12/08 03:53:33;;;;;;;21.20;12.88;;;2.20;99.90;;;;;;467321;251;27548;-76
2020/12/08 03:55:35;;;;;;;20.83;13.30;;;2.20;99.90;;;;;;467361;253;27537;-75
2020/12/08 03:57:36;;;;;;;19.90;13.45;;;2.30;99.90;;;;;;467302;253;27883;-75
2020/12/08 03:59:37;;;;;;;22.05;13.98;;;2.40;99.90;;;;;;467324;253;27571;-75
2020/12/08 04:01:38;;;;;;;19.70;14.32;;;2.40;99.90;;;;;;467249;253;28142;-75
2020/12/08 04:03:40;;;;;;;20.10;13.43;;;2.40;99.90;;;;;;467264;253;28005;-75
2020/12/08 04:05:41;;;;;;;17.98;12.27;;;2.40;99.90;;;;;;467294;253;27544;-75
2020/12/08 04:07:42;;;;;;;20.62;13.73;;;2.40;99.90;;;;;;467320;253;27570;-75
2020/12/08 04:09:43;;;;;;;19.95;13.52;;;2.30;99.90;;;;;;467352;253;27552;-76
2020/12/08 04:11:45;;;;;;;21.37;13.23;;;2.20;99.90;;;;;;467328;253;27558;-75
2020/12/08 04:13:46;;;;;;;19.87;12.80;;;2.20;99.90;;;;;;467337;253;27662;-75
2020/12/08 04:15:47;;;;;;;22.77;13.80;;;2.20;99.90;;;;;;467356;253;28192;-75
2020/12/08 04:17:48;;;;;;;17.35;12.40;;;2.10;99.90;;;;;;467351;254;28133;-76
2020/12/08 04:19:50;;;;;;;20.70;14.20;;;2.00;99.90;;;;;;467366;253;27646;-76
2020/12/08 04:21:51;;;;;;;20.67;13.45;;;2.00;99.90;;;;;;467319;253;27631;-75
2020/12/08 04:23:54;;;;;;;19.40;13.45;;;2.20;99.90;;;;;;467338;253;27529;-75
2020/12/08 04:25:53;;;;;;;21.20;13.70;;;2.20;99.90;;;;;;467623;253;27562;-75
2020/12/08 04:27:55;;;;;;;20.33;13.65;;;2.10;99.90;;;;;;467395;253;27907;-76
2020/12/08 04:29:56;;;;;;;19.05;13.23;;;2.10;99.90;;;;;;467336;254;27648;-75
2020/12/08 04:31:57;;;;;;;20.40;13.48;;;2.10;99.90;;;;;;467329;254;27996;-75
2020/12/08 04:33:59;;;;;;;18.67;12.65;;;2.30;99.90;;;;;;467400;253;27980;-74
2020/12/08 04:36:00;;;;;;;22.20;14.65;;;2.30;99.90;;;;;;467420;254;27651;-75
2020/12/08 04:38:01;;;;;;;21.20;14.60;;;2.20;99.90;;;;;;467420;254;27506;-75
2020/12/08 04:40:02;;;;;;;21.45;15.05;;;2.10;99.90;;;;;;467393;253;27620;-76
2020/12/08 04:42:04;;;;;;;22.58;14.48;;;2.00;99.90;;;;;;467462;253;27560;-76
2020/12/08 04:44:05;;;;;;;22.17;14.23;;;2.10;99.90;;;;;;467531;253;27524;-75
2020/12/08 04:46:06;;;;;;;23.00;13.20;;;2.20;99.90;;;;;;467539;253;27563;-75
2020/12/08 04:48:07;;;;;;;21.62;14.68;;;2.20;99.90;;;;;;467418;253;27952;-75
2020/12/08 04:50:09;;;;;;;27.25;14.23;;;2.30;99.90;;;;;;466689;253;28460;-75
2020/12/08 04:52:10;;;;;;;21.55;14.43;;;2.30;99.90;;;;;;467023;253;27567;-76
2020/12/08 04:54:11;;;;;;;21.23;14.48;;;2.30;99.90;;;;;;466969;252;27529;-74
2020/12/08 04:56:12;;;;;;;20.20;14.35;;;2.30;99.90;;;;;;466794;251;27587;-75
2020/12/08 04:58:14;;;;;;;20.65;14.55;;;2.30;99.90;;;;;;467491;253;28096;-75
2020/12/08 05:00:15;;;;;;;20.35;14.02;;;2.40;99.90;;;;;;467100;254;27557;-75
2020/12/08 05:02:16;;;;;;;20.88;14.07;;;2.50;99.90;;;;;;467385;254;28083;-75
2020/12/08 05:04:17;;;;;;;21.92;14.40;;;2.60;99.90;;;;;;467392;253;28041;-75
2020/12/08 05:06:19;;;;;;;19.55;13.02;;;2.60;99.90;;;;;;467367;253;27540;-75
2020/12/08 05:08:20;;;;;;;19.20;12.85;;;2.60;99.90;;;;;;467364;254;27663;-75
2020/12/08 05:10:21;;;;;;;21.85;14.30;;;2.60;99.90;;;;;;467295;254;27668;-75
2020/12/08 05:12:22;;;;;;;20.05;13.00;;;2.60;99.90;;;;;;467370;253;27903;-76
2020/12/08 05:14:24;;;;;;;21.12;14.45;;;2.50;99.90;;;;;;467365;254;27510;-75
2020/12/08 05:16:25;;;;;;;21.35;15.05;;;2.50;99.90;;;;;;467348;253;27539;-75
2020/12/08 05:18:26;;;;;;;19.80;13.90;;;2.50;99.90;;;;;;467376;253;28096;-76
2020/12/08 05:20:27;;;;;;;20.37;13.57;;;2.60;99.90;;;;;;467292;253;28038;-76
2020/12/08 05:22:29;;;;;;;19.92;14.10;;;2.50;99.90;;;;;;467337;254;27628;-75
2020/12/08 05:24:30;;;;;;;24.48;14.73;;;2.50;99.90;;;;;;467370;253;27537;-75
2020/12/08 05:26:31;;;;;;;23.45;14.45;;;2.30;99.90;;;;;;467381;254;27748;-76
2020/12/08 05:28:32;;;;;;;22.60;14.80;;;2.20;99.90;;;;;;467351;254;27566;-75
2020/12/08 05:30:34;;;;;;;23.62;15.27;;;2.30;99.90;;;;;;467335;253;27563;-75
2020/12/08 05:32:35;;;;;;;27.15;16.42;;;2.30;99.90;;;;;;467355;253;27615;-75
2020/12/08 05:34:36;;;;;;;28.15;16.62;;;2.30;99.90;;;;;;467216;253;28192;-75
2020/12/08 05:36:37;;;;;;;28.10;15.38;;;2.40;99.90;;;;;;467231;253;28197;-75
2020/12/08 05:38:39;;;;;;;27.08;16.83;;;2.50;99.90;;;;;;467183;253;27634;-76
2020/12/08 05:40:40;;;;;;;26.20;16.70;;;2.40;99.90;;;;;;467078;253;27652;-75
2020/12/08 05:42:41;;;;;;;23.08;15.18;;;2.30;99.90;;;;;;467121;253;27535;-75
2020/12/08 05:44:43;;;;;;;26.98;17.40;;;2.40;99.90;;;;;;467347;254;27547;-75
2020/12/08 05:46:44;;;;;;;28.15;16.00;;;2.50;99.90;;;;;;467476;253;27631;-75
2020/12/08 05:48:45;;;;;;;26.73;16.02;;;2.50;99.90;;;;;;467329;253;28004;-75
2020/12/08 05:50:46;;;;;;;24.08;15.23;;;2.40;99.90;;;;;;467344;253;28086;-75
2020/12/08 05:52:48;;;;;;;24.70;15.90;;;2.40;99.90;;;;;;467378;253;27601;-75
2020/12/08 05:54:49;;;;;;;24.10;15.13;;;2.50;99.90;;;;;;467356;253;27743;-75
2020/12/08 05:56:53;;;;;;;25.67;15.77;;;2.60;99.90;;;;;;467334;254;27627;-76
2020/12/08 05:58:54;;;;;;;23.20;14.43;;;2.70;99.90;;;;;;467356;254;27617;-75
2020/12/08 06:00:55;;;;;;;26.77;15.48;;;2.70;99.90;;;;;;467016;253;27540;-75
2020/12/08 06:02:56;;;;;;;20.02;13.85;;;2.70;99.90;;;;;;467291;253;29270;-77
2020/12/08 06:04:58;;;;;;;23.20;14.75;;;2.60;99.90;;;;;;467338;253;28010;-76
2020/12/08 06:06:59;;;;;;;23.23;14.93;;;2.60;99.90;;;;;;467324;253;27540;-75
2020/12/08 06:09:00;;;;;;;24.40;15.68;;;2.60;99.90;;;;;;467345;253;27537;-75
2020/12/08 06:11:02;;;;;;;25.90;16.10;;;2.60;99.90;;;;;;467313;253;27550;-75
2020/12/08 06:13:03;;;;;;;26.08;16.27;;;2.40;99.90;;;;;;467203;253;27627;-75
2020/12/08 06:15:04;;;;;;;23.15;15.02;;;2.30;99.90;;;;;;467355;253;27649;-75
2020/12/08 06:17:05;;;;;;;25.45;15.60;;;2.30;99.90;;;;;;467377;253;27539;-76
2020/12/08 06:19:07;;;;;;;24.37;15.52;;;2.30;99.90;;;;;;467325;253;28581;-77
2020/12/08 06:21:08;;;;;;;25.35;16.15;;;2.30;99.90;;;;;;467433;253;28077;-75
2020/12/08 06:23:09;;;;;;;22.17;15.48;;;2.50;99.90;;;;;;467552;251;27656;-75
2020/12/08 06:25:10;;;;;;;24.75;16.35;;;2.40;99.90;;;;;;467534;254;27572;-75
2020/12/08 06:27:12;;;;;;;27.35;15.75;;;2.40;99.90;;;;;;467399;253;27616;-75
2020/12/08 06:29:13;;;;;;;25.27;16.25;;;2.50;99.90;;;;;;467253;253;27545;-75
2020/12/08 06:31:14;;;;;;;31.12;17.92;;;2.50;99.90;;;;;;467313;253;27630;-75
2020/12/08 06:33:15;;;;;;;25.10;16.12;;;2.50;99.90;;;;;;467389;253;28865;-76
2020/12/08 06:35:17;;;;;;;25.37;15.68;;;2.50;99.90;;;;;;467370;253;29097;-75
2020/12/08 06:37:18;;;;;;;27.02;17.83;;;2.50;99.90;;;;;;467387;253;27531;-75
2020/12/08 06:39:19;;;;;;;28.77;15.98;;;2.60;99.90;;;;;;467387;253;27561;-75
2020/12/08 06:41:20;;;;;;;24.60;15.60;;;2.60;99.90;;;;;;467324;253;27548;-75
2020/12/08 06:43:22;;;;;;;26.35;15.85;;;2.70;99.90;;;;;;467406;253;27534;-75
2020/12/08 06:45:23;;;;;;;28.65;16.35;;;2.70;99.90;;;;;;467410;253;27511;-75
2020/12/08 06:47:24;;;;;;;25.42;15.85;;;2.70;99.90;;;;;;467348;253;27623;-75
2020/12/08 06:49:25;;;;;;;25.55;15.63;;;2.80;99.90;;;;;;467288;253;27996;-76
2020/12/08 06:51:27;;;;;;;24.73;15.93;;;2.80;99.90;;;;;;467299;254;28116;-74
2020/12/08 06:53:28;;;;;;;25.52;15.63;;;2.70;99.90;;;;;;467334;253;27552;-75
2020/12/08 06:55:29;;;;;;;26.23;16.67;;;2.70;99.90;;;;;;467359;254;27639;-75
2020/12/08 06:57:30;;;;;;;29.33;18.35;;;2.70;99.90;;;;;;467379;254;27899;-75
2020/12/08 06:59:32;;;;;;;26.17;16.35;;;2.60;99.90;;;;;;467343;253;27620;-75
2020/12/08 07:01:33;;;;;;;27.45;16.87;;;2.60;99.90;;;;;;467396;253;27547;-76
2020/12/08 07:03:36;;;;;;;28.20;17.08;;;2.60;99.90;;;;;;467486;254;27973;-75
2020/12/08 07:05:35;;;;;;;29.63;17.60;;;2.60;99.90;;;;;;467459;253;27994;-75
2020/12/08 07:07:37;;;;;;;27.50;15.70;;;2.60;99.90;;;;;;467384;254;28043;-75
2020/12/08 07:09:38;;;;;;;28.40;16.70;;;2.60;99.90;;;;;;467366;254;27653;-75
2020/12/08 07:11:39;;;;;;;26.52;16.62;;;2.70;99.90;;;;;;467395;254;27504;-75
2020/12/08 07:13:40;;;;;;;29.35;17.15;;;2.60;99.90;;;;;;467498;253;27664;-75
2020/12/08 07:15:42;;;;;;;27.85;17.10;;;2.50;99.90;;;;;;467513;253;27592;-75
2020/12/08 07:17:43;;;;;;;32.22;18.77;;;2.50;99.90;;;;;;467497;253;27502;-75
2020/12/08 07:19:44;;;;;;;30.58;18.80;;;2.40;99.90;;;;;;467403;253;28031;-75
2020/12/08 07:21:45;;;;;;;31.15;18.50;;;2.40;99.90;;;;;;467363;253;29092;-75
2020/12/08 07:23:47;;;;;;;26.92;16.98;;;2.40;99.90;;;;;;467520;253;27624;-75
2020/12/08 07:25:48;;;;;;;29.05;17.90;;;2.50;99.90;;;;;;467533;253;27543;-75
2020/12/08 07:27:49;;;;;;;31.33;17.80;;;2.60;99.90;;;;;;467452;253;27494;-75
2020/12/08 07:29:51;;;;;;;30.62;18.23;;;2.50;99.90;;;;;;467413;253;27615;-75
2020/12/08 07:31:52;;;;;;;31.42;19.23;;;2.60;99.90;;;;;;467400;253;27560;-75
2020/12/08 07:33:53;;;;;;;28.92;17.55;;;2.70;99.90;;;;;;467470;253;27609;-75
2020/12/08 07:35:55;;;;;;;30.85;17.90;;;2.50;99.90;;;;;;467289;253;28114;-76
2020/12/08 07:37:56;;;;;;;30.67;17.95;;;2.40;99.90;;;;;;467163;251;27992;-75
2020/12/08 07:39:57;;;;;;;28.77;17.58;;;2.60;99.90;;;;;;467470;254;27535;-75
2020/12/08 07:41:58;;;;;;;28.95;17.75;;;2.60;99.90;;;;;;467494;253;27560;-75
2020/12/08 07:43:59;;;;;;;34.92;19.52;;;2.50;99.90;;;;;;467557;253;27548;-75
2020/12/08 07:46:01;;;;;;;35.25;19.58;;;2.50;99.90;;;;;;467540;253;27673;-76
2020/12/08 07:48:02;;;;;;;28.23;17.70;;;2.40;99.90;;;;;;467438;253;27534;-75
2020/12/08 07:50:03;;;;;;;34.60;19.75;;;2.50;99.90;;;;;;467280;251;27547;-75
2020/12/08 07:52:04;;;;;;;33.35;18.52;;;2.30;99.90;;;;;;467178;253;28090;-75
2020/12/08 07:54:06;;;;;;;34.50;19.65;;;2.30;99.90;;;;;;467225;251;28064;-75
2020/12/08 07:56:07;;;;;;;34.15;20.10;;;2.30;99.90;;;;;;467278;253;27574;-76
2020/12/08 07:58:08;;;;;;;33.63;19.55;;;2.30;99.90;;;;;;467384;251;27559;-74
2020/12/08 08:00:09;;;;;;;30.50;18.37;;;2.40;99.90;;;;;;467363;253;27588;-76
2020/12/08 08:02:11;;;;;;;33.75;18.23;;;2.40;99.90;;;;;;467351;253;27668;-75
2020/12/08 08:04:12;;;;;;;30.02;18.83;;;2.50;99.90;;;;;;467402;253;27652;-75
2020/12/08 08:06:13;;;;;;;34.83;20.52;;;2.70;99.90;;;;;;467359;253;28145;-75
2020/12/08 08:08:14;;;;;;;33.55;18.87;;;2.80;99.90;;;;;;467369;253;28024;-76
2020/12/08 08:10:16;;;;;;;32.63;19.30;;;2.90;99.90;;;;;;467334;253;27540;-75
2020/12/08 08:12:17;;;;;;;29.95;18.90;;;2.90;99.90;;;;;;467383;253;27545;-75
2020/12/08 08:14:18;;;;;;;32.83;18.87;;;2.90;99.90;;;;;;467400;253;27602;-76
2020/12/08 08:16:19;;;;;;;29.25;18.42;;;2.90;99.90;;;;;;467383;253;27906;-75
2020/12/08 08:18:21;;;;;;;29.77;17.75;;;2.90;99.90;;;;;;467375;254;27573;-75
2020/12/08 08:20:22;;;;;;;29.00;18.98;;;3.00;99.90;;;;;;467352;253;27543;-75
2020/12/08 08:22:23;;;;;;;33.97;20.23;;;3.00;99.90;;;;;;467374;252;27981;-75
2020/12/08 08:24:24;;;;;;;28.27;16.80;;;3.10;99.90;;;;;;467397;253;28029;-75
2020/12/08 08:26:26;;;;;;;30.30;18.80;;;3.10;99.90;;;;;;467397;253;27553;-76
2020/12/08 08:28:27;;;;;;;27.62;18.15;;;3.20;99.90;;;;;;467387;253;27560;-76
2020/12/08 08:30:28;;;;;;;31.50;17.30;;;3.10;99.90;;;;;;467347;253;27535;-75
2020/12/08 08:32:29;;;;;;;30.83;19.20;;;3.10;99.90;;;;;;467498;253;27600;-75
2020/12/08 08:34:31;;;;;;;35.10;20.25;;;3.10;99.90;;;;;;467515;253;27548;-75
2020/12/08 08:36:32;;;;;;;32.25;19.33;;;2.90;99.90;;;;;;467501;253;27573;-75
2020/12/08 08:38:33;;;;;;;37.78;22.35;;;2.90;99.90;;;;;;467425;253;27997;-75
2020/12/08 08:40:35;;;;;;;32.53;19.98;;;2.90;99.90;;;;;;467330;253;28727;-76
2020/12/08 08:42:36;;;;;;;32.75;20.02;;;2.80;99.90;;;;;;467413;253;27498;-75
2020/12/08 08:44:37;;;;;;;35.38;21.37;;;2.90;99.90;;;;;;467393;253;27542;-76
2020/12/08 08:46:38;;;;;;;32.85;20.80;;;3.10;99.90;;;;;;467383;253;27533;-75
2020/12/08 08:48:40;;;;;;;32.47;19.67;;;2.80;99.90;;;;;;467283;253;27670;-75
2020/12/08 08:50:41;;;;;;;28.65;18.75;;;2.80;99.90;;;;;;467371;253;27568;-77
2020/12/08 08:52:42;;;;;;;33.33;20.85;;;2.90;99.90;;;;;;467449;253;28059;-75
2020/12/08 08:54:43;;;;;;;32.90;19.85;;;3.00;99.90;;;;;;467480;254;29124;-75
2020/12/08 08:56:45;;;;;;;29.75;18.83;;;2.90;99.90;;;;;;467545;253;27517;-75
2020/12/08 08:58:46;;;;;;;31.95;19.12;;;2.70;99.90;;;;;;467546;253;27678;-75
2020/12/08 09:00:47;;;;;;;34.40;20.42;;;2.80;99.90;;;;;;467498;253;27543;-76
2020/12/08 09:02:48;;;;;;;32.92;20.00;;;2.90;99.90;;;;;;467255;251;27501;-75
2020/12/08 09:04:50;;;;;;;32.17;18.75;;;3.00;99.90;;;;;;467492;253;27560;-76
2020/12/08 09:06:51;;;;;;;33.35;20.58;;;3.10;99.90;;;;;;467456;253;27527;-74
2020/12/08 09:08:52;;;;;;;30.58;19.60;;;3.00;99.90;;;;;;467496;254;27950;-75
2020/12/08 09:10:53;;;;;;;28.48;18.05;;;3.00;99.90;;;;;;467432;253;27998;-75
2020/12/08 09:12:55;;;;;;;32.67;19.40;;;3.00;99.90;;;;;;467494;253;27497;-75
2020/12/08 09:14:59;;;;;;;29.35;18.65;;;3.10;99.90;;;;;;467468;253;27532;-75
2020/12/08 09:16:57;;;;;;;31.55;20.45;;;3.00;99.90;;;;;;467405;253;27808;-76
2020/12/08 09:18:58;;;;;;;28.35;18.30;;;3.10;99.90;;;;;;467379;253;27535;-75
2020/12/08 09:21:00;;;;;;;30.65;18.98;;;3.20;99.90;;;;;;467312;253;27536;-76
2020/12/08 09:23:01;;;;;;;30.95;19.08;;;3.50;99.90;;;;;;467382;253;27621;-75
2020/12/08 09:25:02;;;;;;;31.77;18.25;;;3.40;99.90;;;;;;467303;254;28095;-75
2020/12/08 09:27:05;;;;;;;28.08;18.55;;;3.10;99.90;;;;;;467377;253;28115;-76
2020/12/08 09:29:05;;;;;;;29.02;19.10;;;3.10;99.90;;;;;;467692;253;27594;-74
2020/12/08 09:31:06;;;;;;;28.92;18.33;;;3.20;99.90;;;;;;467657;253;27494;-76
2020/12/08 09:33:07;;;;;;;28.90;18.80;;;3.20;99.90;;;;;;467694;253;27516;-75
2020/12/08 09:35:08;;;;;;;28.00;19.00;;;3.40;99.90;;;;;;467676;251;27497;-75
2020/12/08 09:37:10;;;;;;;31.95;19.45;;;3.50;99.90;;;;;;467471;253;27580;-77
2020/12/08 09:39:11;;;;;;;28.48;18.40;;;3.40;99.90;;;;;;467364;253;28102;-76
2020/12/08 09:41:12;;;;;;;30.67;19.80;;;3.20;99.90;;;;;;467321;253;27999;-76
2020/12/08 09:43:13;;;;;;;29.55;18.60;;;3.20;99.90;;;;;;467356;253;27526;-75
2020/12/08 09:45:15;;;;;;;30.77;19.23;;;3.10;99.90;;;;;;467347;254;27531;-76
2020/12/08 09:47:16;;;;;;;27.85;17.90;;;3.10;99.90;;;;;;467347;253;27552;-75
2020/12/08 09:49:17;;;;;;;31.37;19.65;;;3.20;99.90;;;;;;467305;254;27548;-76
2020/12/08 09:51:18;;;;;;;32.00;20.12;;;3.20;99.90;;;;;;467349;253;27531;-75
2020/12/08 09:53:20;;;;;;;32.00;19.92;;;3.20;99.90;;;;;;467419;253;28013;-75
2020/12/08 09:55:21;;;;;;;29.70;19.25;;;3.20;99.90;;;;;;467393;253;28106;-75
2020/12/08 09:57:24;;;;;;;33.72;20.52;;;3.10;99.90;;;;;;467430;253;29194;-75
2020/12/08 09:59:24;;;;;;;32.60;19.35;;;3.00;99.90;;;;;;467442;253;27536;-75
2020/12/08 10:01:25;;;;;;;33.35;20.92;;;3.00;99.90;;;;;;467453;253;27502;-75
2020/12/08 10:03:26;;;;;;;31.00;19.65;;;3.00;99.90;;;;;;467515;253;27533;-75
2020/12/08 10:05:27;;;;;;;30.92;18.77;;;2.80;99.90;;;;;;467521;253;27531;-75
2020/12/08 10:07:29;;;;;;;29.75;18.70;;;2.90;99.90;;;;;;467524;253;27537;-75
2020/12/08 10:09:30;;;;;;;29.48;19.65;;;2.90;99.90;;;;;;467541;253;28004;-75
2020/12/08 10:11:32;;;;;;;31.08;19.75;;;3.00;99.90;;;;;;467521;253;28114;-75
2020/12/08 10:13:32;;;;;;;34.08;20.12;;;3.00;99.90;;;;;;467542;253;27620;-75
2020/12/08 10:15:34;;;;;;;34.03;21.87;;;3.00;99.90;;;;;;467533;254;27504;-75
2020/12/08 10:17:35;;;;;;;29.77;20.05;;;3.00;99.90;;;;;;467530;253;27510;-75
2020/12/08 10:19:36;;;;;;;33.05;20.27;;;3.00;99.90;;;;;;467522;254;27536;-76
2020/12/08 10:21:40;;;;;;;28.40;19.23;;;3.10;99.90;;;;;;467447;254;27521;-75
2020/12/08 10:23:39;;;;;;;29.90;18.98;;;3.10;99.90;;;;;;467394;253;27533;-75
2020/12/08 10:25:40;;;;;;;37.33;20.85;;;3.20;99.90;;;;;;467047;253;28091;-75
2020/12/08 10:27:42;;;;;;;32.63;21.02;;;3.30;99.90;;;;;;467334;254;28035;-75
2020/12/08 10:29:42;;;;;;;31.83;19.67;;;3.30;99.90;;;;;;467389;253;27547;-76